Orbital elements of METOP-B
| Launched | 16 September 2012 |
| Flight ended | – |
| Launch site | Tyuratam Missile and Space Center, Kazakhstan (Also known as Baikonur Cosmodrome) |
| Owner | European Organization for the Exploitation of Meteorological Satellites (EUMETSAT) |
| NORAD ID | 38771 |
| Date fetched |
Epoch osculation |
Inc. [°] |
Ecc. | RA asc node [hr] |
Arg Peri. [°] |
Mean anom [°] |
Mean motion [rev/day] |
Abs. mag |
| Date fetched |
Epoch osculation |
Inc. [°] |
Ecc. | RA asc node [hr] |
Arg Peri. [°] |
Mean anom [°] |
Mean motion [rev/day] |
Abs. mag |
| 2026 May 07 17:58 | 2026 May 06 20:52:25 | 98.6534 | 0.00036 | 11.9458 | 103.7812 | 256.3764 | 14.21436 | 5.500 |
| 2026 May 06 17:57 | 2026 May 06 10:44:14 | 98.6535 | 0.00036 | 11.9182 | 104.5717 | 256.3764 | 14.21436 | 5.500 |
| 2026 May 05 17:57 | 2026 May 05 11:05:09 | 98.6536 | 0.00036 | 11.8538 | 106.4487 | 256.3764 | 14.21436 | 5.500 |
| 2026 May 04 17:57 | 2026 May 04 11:26:04 | 98.6538 | 0.00036 | 11.7894 | 108.4205 | 256.3764 | 14.21436 | 5.500 |
| 2026 May 03 17:57 | 2026 May 03 11:46:59 | 98.6539 | 0.00035 | 11.7249 | 110.3184 | 256.3764 | 14.21436 | 5.500 |
| 2026 May 02 17:57 | 2026 May 02 08:45:10 | 98.6540 | 0.00035 | 11.6513 | 112.5246 | 256.3764 | 14.21436 | 5.500 |
| 2026 May 01 17:56 | 2026 May 01 10:47:27 | 98.6542 | 0.00035 | 11.5915 | 114.2634 | 256.3764 | 14.21436 | 5.500 |
| 2026 Apr 30 17:56 | 2026 Apr 30 11:08:21 | 98.6543 | 0.00035 | 11.5271 | 116.2645 | 256.3764 | 14.21436 | 5.500 |
| 2026 Apr 29 17:57 | 2026 Apr 29 11:29:16 | 98.6545 | 0.00035 | 11.4627 | 118.2821 | 256.3764 | 14.21436 | 5.500 |
| 2026 Apr 28 17:56 | 2026 Apr 28 11:50:11 | 98.6546 | 0.00034 | 11.3983 | 120.1492 | 256.3764 | 14.21436 | 5.500 |
| 2026 Apr 27 17:58 | 2026 Apr 27 10:29:44 | 98.6547 | 0.00034 | 11.3292 | 122.1276 | 256.3764 | 14.21436 | 5.500 |
| 2026 Apr 26 17:58 | 2026 Apr 26 10:50:38 | 98.6549 | 0.00034 | 11.2648 | 124.0628 | 256.3764 | 14.21436 | 5.500 |
| 2026 Apr 25 17:58 | 2026 Apr 25 11:11:33 | 98.6551 | 0.00034 | 11.2004 | 126.0865 | 256.3764 | 14.21436 | 5.500 |
| 2026 Apr 24 17:59 | 2026 Apr 24 09:51:06 | 98.6552 | 0.00033 | 11.1314 | 128.1350 | 256.3764 | 14.21436 | 5.500 |
| 2026 Apr 23 17:57 | 2026 Apr 23 05:07:55 | 98.6554 | 0.00033 | 11.0531 | 130.5218 | 256.3764 | 14.21436 | 5.500 |
| 2026 Apr 22 17:57 | 2026 Apr 22 05:28:49 | 98.6556 | 0.00033 | 10.9887 | 132.4789 | 256.3764 | 14.21436 | 5.500 |
| 2026 Apr 21 17:57 | 2026 Apr 21 10:53:49 | 98.6557 | 0.00032 | 10.9381 | 133.8823 | 256.3764 | 14.21436 | 5.500 |
| 2026 Apr 20 17:57 | 2026 Apr 20 11:14:44 | 98.6559 | 0.00032 | 10.8737 | 135.8682 | 256.3764 | 14.21436 | 5.500 |
| 2026 Apr 19 17:58 | 2026 Apr 19 11:35:39 | 98.6560 | 0.00032 | 10.8092 | 137.8946 | 256.3764 | 14.21436 | 5.500 |
| 2026 Apr 18 17:56 | 2026 Apr 18 05:11:06 | 98.6562 | 0.00031 | 10.7264 | 140.7292 | 256.3764 | 14.21436 | 5.500 |
| 2026 Apr 16 17:57 | 2026 Apr 16 05:52:55 | 98.6565 | 0.00030 | 10.5975 | 144.7919 | 256.3764 | 14.21436 | 5.500 |
| 2026 Apr 14 17:57 | 2026 Apr 14 11:38:49 | 98.6568 | 0.00030 | 10.4825 | 148.5738 | 256.3764 | 14.21436 | 5.500 |
| 2026 Apr 13 17:57 | 2026 Apr 13 05:14:16 | 98.6570 | 0.00029 | 10.3996 | 151.5787 | 256.3764 | 14.21436 | 5.500 |
| 2026 Apr 12 17:57 | 2026 Apr 12 10:39:16 | 98.6572 | 0.00028 | 10.3490 | 153.1902 | 256.3764 | 14.21436 | 5.500 |
| 2026 Apr 11 17:57 | 2026 Apr 11 11:00:11 | 98.6574 | 0.00028 | 10.2845 | 155.2020 | 256.3764 | 14.21436 | 5.500 |
| 2026 Apr 10 17:58 | 2026 Apr 10 04:35:38 | 98.6576 | 0.00027 | 10.2017 | 157.9680 | 256.3764 | 14.21436 | 5.500 |